createdAt,value
2018-03-11T00:01:58.982Z,37.63
2018-03-11T00:04:26.594Z,31.10
2018-03-11T00:06:54.158Z,32.30
2018-03-11T00:09:21.722Z,35.30
2018-03-11T00:11:49.290Z,43.97
2018-03-11T00:14:16.846Z,39.37
2018-03-11T00:16:44.879Z,46.33
2018-03-11T00:19:12.502Z,44.30
2018-03-11T00:21:40.062Z,49.63
2018-03-11T00:24:07.649Z,46.37
2018-03-11T00:26:35.282Z,63.37
2018-03-11T00:29:02.890Z,52.33
2018-03-11T00:31:30.510Z,62.97
2018-03-11T00:33:58.074Z,76.13
2018-03-11T00:36:25.698Z,62.70
2018-03-11T00:38:53.315Z,70.93
2018-03-11T00:41:20.926Z,68.10
2018-03-11T00:43:48.481Z,58.27
2018-03-11T00:46:16.037Z,65.10
2018-03-11T00:48:43.671Z,64.80
2018-03-11T00:51:11.295Z,50.97
2018-03-11T00:53:38.974Z,52.47
2018-03-11T00:56:06.583Z,57.00
2018-03-11T00:58:34.118Z,47.93
2018-03-11T01:01:01.743Z,36.93
2018-03-11T01:03:29.303Z,44.53
2018-03-11T01:05:56.918Z,38.33
2018-03-11T01:08:24.539Z,46.43
2018-03-11T01:10:52.094Z,36.93
2018-03-11T01:13:19.666Z,50.27
2018-03-11T01:15:47.227Z,40.37
2018-03-11T01:18:14.842Z,65.47
2018-03-11T01:20:42.406Z,78.70
2018-03-11T01:23:09.967Z,67.70
2018-03-11T01:25:37.538Z,50.20
2018-03-11T01:28:05.100Z,71.63
2018-03-11T01:30:32.770Z,48.93
2018-03-11T01:33:00.331Z,48.83
2018-03-11T01:35:27.898Z,45.13
2018-03-11T01:37:55.534Z,41.67
2018-03-11T01:40:23.094Z,36.80
2018-03-11T01:42:50.710Z,43.80
2018-03-11T01:45:18.270Z,44.50
2018-03-11T01:47:45.835Z,48.63
2018-03-11T01:50:13.406Z,41.70
2018-03-11T01:52:52.646Z,36.73
2018-03-11T01:55:20.284Z,38.30
2018-03-11T01:57:47.907Z,42.80
2018-03-11T02:00:15.587Z,46.20
2018-03-11T02:02:43.146Z,39.43
2018-03-11T02:05:10.715Z,35.90
2018-03-11T02:07:38.286Z,31.03
2018-03-11T02:10:05.842Z,39.10
2018-03-11T02:12:33.510Z,39.53
2018-03-11T02:15:01.164Z,31.60
2018-03-11T02:17:28.788Z,34.97
2018-03-11T02:19:56.419Z,29.40
2018-03-11T02:22:23.986Z,42.13
2018-03-11T02:24:51.605Z,28.00
2018-03-11T02:27:19.166Z,23.17
2018-03-11T02:29:46.796Z,22.50
2018-03-11T02:32:14.382Z,16.23
2018-03-11T02:34:41.951Z,21.90
2018-03-11T02:37:09.558Z,20.50
2018-03-11T02:39:37.122Z,22.23
2018-03-11T02:42:04.743Z,19.00
2018-03-11T02:44:32.318Z,20.20
2018-03-11T02:46:59.878Z,29.27
2018-03-11T02:49:27.490Z,32.63
2018-03-11T02:51:55.110Z,31.90
2018-03-11T02:54:22.680Z,36.83
2018-03-11T02:56:50.245Z,37.37
2018-03-11T02:59:17.809Z,31.73
2018-03-11T03:01:45.481Z,36.33
2018-03-11T03:04:13.099Z,59.97
2018-03-11T03:06:40.723Z,41.07
2018-03-11T03:09:08.304Z,32.40
2018-03-11T03:11:35.862Z,32.03
2018-03-11T03:14:03.476Z,47.70
2018-03-11T03:16:31.042Z,62.47
2018-03-11T03:18:58.671Z,52.60
2018-03-11T03:21:26.239Z,55.23
2018-03-11T03:23:53.798Z,43.10
2018-03-11T03:26:21.411Z,55.33
2018-03-11T03:28:48.973Z,48.37
2018-03-11T03:31:16.587Z,42.10
2018-03-11T03:33:44.158Z,45.93
2018-03-11T03:36:11.774Z,48.43
2018-03-11T03:38:39.382Z,44.13
2018-03-11T03:41:06.945Z,44.80
2018-03-11T03:43:34.524Z,32.30
2018-03-11T03:46:02.155Z,33.60
2018-03-11T03:48:29.718Z,33.50
2018-03-11T03:50:57.329Z,25.13
2018-03-11T03:53:24.890Z,33.47
2018-03-11T03:55:52.461Z,30.90
2018-03-11T03:58:20.031Z,30.80
2018-03-11T04:00:47.590Z,27.87
2018-03-11T04:03:15.205Z,36.20
2018-03-11T04:05:42.772Z,33.87
2018-03-11T04:08:10.337Z,36.07
2018-03-11T04:10:37.962Z,36.63
2018-03-11T04:13:05.583Z,43.13
2018-03-11T04:15:33.237Z,43.10
2018-03-11T04:18:00.859Z,38.67
2018-03-11T04:20:28.458Z,36.27
2018-03-11T04:22:56.083Z,55.17
2018-03-11T04:25:23.642Z,81.87
2018-03-11T04:27:51.334Z,82.40
2018-03-11T04:30:18.895Z,65.50
2018-03-11T04:32:46.467Z,55.00
2018-03-11T04:35:14.034Z,54.97
2018-03-11T04:37:41.664Z,61.07
2018-03-11T04:40:09.295Z,61.30
2018-03-11T04:42:36.866Z,44.90
2018-03-11T04:45:04.491Z,49.57
2018-03-11T04:47:32.123Z,64.20
2018-03-11T04:49:59.739Z,64.93
2018-03-11T04:52:27.360Z,73.80
2018-03-11T04:54:54.982Z,54.40
2018-03-11T04:57:22.547Z,64.37
2018-03-11T04:59:50.127Z,38.67
2018-03-11T05:02:17.689Z,47.57
2018-03-11T05:04:45.312Z,56.47
2018-03-11T05:07:12.879Z,83.03
2018-03-11T05:09:40.502Z,122.00
2018-03-11T05:12:08.127Z,99.00
2018-03-11T05:14:35.760Z,77.90
2018-03-11T05:17:03.386Z,117.23
2018-03-11T05:19:30.941Z,74.57
2018-03-11T05:21:58.558Z,90.20
2018-03-11T05:24:26.126Z,65.47
2018-03-11T05:26:53.691Z,88.87
2018-03-11T05:29:21.365Z,55.07
2018-03-11T05:31:48.926Z,67.13
2018-03-11T05:34:16.490Z,103.53
2018-03-11T05:36:44.068Z,107.80
2018-03-11T05:39:11.638Z,81.20
2018-03-11T05:41:40.029Z,81.53
2018-03-11T05:44:07.594Z,44.70
2018-03-11T05:46:35.161Z,40.10
2018-03-11T05:49:02.799Z,45.03
2018-03-11T05:51:30.424Z,42.80
2018-03-11T05:53:58.105Z,32.97
2018-03-11T05:56:25.679Z,31.73
2018-03-11T05:58:53.264Z,41.37
2018-03-11T06:01:20.839Z,49.73
2018-03-11T06:03:48.475Z,54.20
2018-03-11T06:06:16.159Z,50.63
2018-03-11T06:08:43.786Z,55.10
2018-03-11T06:11:11.354Z,59.10
2018-03-11T06:13:38.982Z,31.40
2018-03-11T06:16:06.603Z,39.57
2018-03-11T06:18:34.237Z,29.57
2018-03-11T06:21:01.872Z,48.27
2018-03-11T06:23:29.446Z,28.70
2018-03-11T06:25:57.054Z,19.03
2018-03-11T06:28:24.618Z,17.70
2018-03-11T06:30:52.233Z,21.30
2018-03-11T06:33:19.854Z,30.37
2018-03-11T06:35:47.475Z,18.10
2018-03-11T06:38:17.023Z,28.70
2018-03-11T06:40:44.582Z,24.33
2018-03-11T06:43:12.198Z,23.37
2018-03-11T06:45:39.783Z,20.63
2018-03-11T06:48:07.342Z,22.90
2018-03-11T06:50:34.913Z,22.87
2018-03-11T06:53:02.539Z,21.17
2018-03-11T06:55:30.166Z,18.03
2018-03-11T06:57:57.742Z,29.43
2018-03-11T07:00:25.362Z,35.00
2018-03-11T07:02:52.991Z,17.37
2018-03-11T07:05:20.557Z,16.10
2018-03-11T07:07:48.223Z,12.20
2018-03-11T07:10:15.783Z,11.50
2018-03-11T07:12:43.414Z,16.40
2018-03-11T07:15:11.048Z,11.57
